createdAt,value
2018-06-19T00:02:17.742Z,13.20
2018-06-19T00:04:46.152Z,13.20
2018-06-19T00:07:14.687Z,13.20
2018-06-19T00:09:42.834Z,13.10
2018-06-19T00:12:11.819Z,13.10
2018-06-19T00:14:39.973Z,13.00
2018-06-19T00:17:08.120Z,13.00
2018-06-19T00:19:39.903Z,13.00
2018-06-19T00:22:08.062Z,12.90
2018-06-19T00:24:39.680Z,13.00
2018-06-19T00:27:07.837Z,12.90
2018-06-19T00:29:35.989Z,12.90
2018-06-19T00:32:04.170Z,12.80
2018-06-19T00:34:32.317Z,12.80
2018-06-19T00:37:00.483Z,12.80
2018-06-19T00:39:28.651Z,12.80
2018-06-19T00:41:56.819Z,12.80
2018-06-19T00:44:25.012Z,12.70
2018-06-19T00:49:21.283Z,12.70
2018-06-19T00:51:49.484Z,12.70
2018-06-19T00:54:17.633Z,12.70
2018-06-19T00:56:51.772Z,12.60
2018-06-19T00:59:19.935Z,12.60
2018-06-19T01:01:48.116Z,12.60
2018-06-19T01:04:16.339Z,12.60
2018-06-19T01:06:44.822Z,12.50
2018-06-19T01:09:13.552Z,12.60
2018-06-19T01:11:41.867Z,12.60
2018-06-19T01:14:10.032Z,12.60
2018-06-19T01:16:38.281Z,12.60
2018-06-19T01:19:06.555Z,12.50
2018-06-19T01:21:34.734Z,12.50
2018-06-19T01:24:02.931Z,12.50
2018-06-19T01:26:31.102Z,12.50
2018-06-19T01:28:59.282Z,12.50
2018-06-19T01:31:27.428Z,12.50
2018-06-19T01:33:55.635Z,12.50
2018-06-19T01:36:23.812Z,12.40
2018-06-19T01:38:52.006Z,12.40
2018-06-19T01:41:21.457Z,12.40
2018-06-19T01:43:49.639Z,12.40
2018-06-19T01:46:17.825Z,12.30
2018-06-19T01:48:46.254Z,12.30
2018-06-19T01:51:14.430Z,12.30
2018-06-19T01:53:42.595Z,12.20
2018-06-19T01:56:10.764Z,12.20
2018-06-19T01:58:39.108Z,12.10
2018-06-19T02:01:07.268Z,12.10
2018-06-19T02:03:35.439Z,12.10
2018-06-19T02:06:03.795Z,12.10
2018-06-19T02:08:32.210Z,12.10
2018-06-19T02:11:00.372Z,12.00
2018-06-19T02:13:28.547Z,12.00
2018-06-19T02:15:57.084Z,12.00
2018-06-19T02:18:25.249Z,12.00
2018-06-19T02:20:53.758Z,12.00
2018-06-19T02:23:21.971Z,12.00
2018-06-19T02:25:50.129Z,12.10
2018-06-19T02:28:18.401Z,12.10
2018-06-19T02:30:46.572Z,12.20
2018-06-19T02:33:14.744Z,12.30
2018-06-19T02:35:42.903Z,12.40
2018-06-19T02:38:11.110Z,12.50
2018-06-19T02:40:39.343Z,12.60
2018-06-19T02:43:07.524Z,12.60
2018-06-19T02:45:35.685Z,12.70
2018-06-19T02:48:03.837Z,12.80
2018-06-19T02:50:32.033Z,12.80
2018-06-19T02:53:00.204Z,12.90
2018-06-19T02:55:28.403Z,13.00
2018-06-19T02:57:56.561Z,13.10
2018-06-19T03:00:24.742Z,13.10
2018-06-19T03:02:52.973Z,13.10
2018-06-19T03:05:21.440Z,13.20
2018-06-19T03:07:49.700Z,13.20
2018-06-19T03:10:17.966Z,13.20
2018-06-19T03:12:46.117Z,13.30
2018-06-19T03:15:14.288Z,13.40
2018-06-19T03:17:42.860Z,13.40
2018-06-19T03:22:38.971Z,13.40
2018-06-19T03:25:07.160Z,13.50
2018-06-19T03:27:35.318Z,13.50
2018-06-19T03:30:03.459Z,13.50
2018-06-19T03:32:31.634Z,13.60
2018-06-19T03:34:59.956Z,13.60
2018-06-19T03:37:28.234Z,13.70
2018-06-19T03:39:56.382Z,13.70
2018-06-19T03:42:24.645Z,13.80
2018-06-19T03:44:52.900Z,13.80
2018-06-19T03:47:21.052Z,13.80
2018-06-19T03:49:49.214Z,13.80
2018-06-19T03:52:17.580Z,13.90
2018-06-19T03:54:45.744Z,13.90
2018-06-19T03:57:13.895Z,13.90
2018-06-19T03:59:42.128Z,14.00
2018-06-19T04:02:10.305Z,14.00
2018-06-19T04:04:38.477Z,14.00
2018-06-19T04:07:07.772Z,14.10
2018-06-19T04:09:35.925Z,14.20
2018-06-19T04:12:04.085Z,14.20
2018-06-19T04:14:32.270Z,14.20
2018-06-19T04:19:29.046Z,14.40
2018-06-19T04:21:57.208Z,14.40
2018-06-19T04:24:25.376Z,14.50
2018-06-19T04:26:53.563Z,14.60
2018-06-19T04:31:49.655Z,14.60
2018-06-19T04:34:17.820Z,14.60
2018-06-19T04:36:45.982Z,14.60
2018-06-19T04:39:14.179Z,14.60
2018-06-19T04:41:42.604Z,14.70
2018-06-19T04:44:10.781Z,14.70
2018-06-19T04:46:38.938Z,14.70
2018-06-19T04:49:07.112Z,14.60
2018-06-19T04:51:35.392Z,14.70
2018-06-19T04:54:03.688Z,14.70
2018-06-19T04:56:31.860Z,14.80
2018-06-19T04:59:00.045Z,15.00
2018-06-19T05:01:28.293Z,15.20
2018-06-19T05:03:56.467Z,15.40
2018-06-19T05:06:24.858Z,15.60
2018-06-19T05:08:53.010Z,15.70
2018-06-19T05:11:21.203Z,15.80
2018-06-19T05:13:49.416Z,15.80
2018-06-19T05:16:17.596Z,15.70
2018-06-19T05:18:45.852Z,15.70
2018-06-19T05:21:14.033Z,15.90
2018-06-19T05:23:42.184Z,16.10
2018-06-19T05:26:10.381Z,16.40
2018-06-19T05:28:38.540Z,16.70
2018-06-19T05:31:06.902Z,16.90
2018-06-19T05:33:35.283Z,17.20
2018-06-19T05:36:03.593Z,17.50
2018-06-19T05:38:31.859Z,17.70
2018-06-19T05:41:00.232Z,17.90
2018-06-19T05:43:28.464Z,17.90
2018-06-19T05:45:56.685Z,18.00
2018-06-19T05:48:24.863Z,18.00
2018-06-19T05:50:53.230Z,17.90
2018-06-19T05:53:21.425Z,17.80
2018-06-19T05:55:49.605Z,17.80
2018-06-19T05:58:17.784Z,17.70
2018-06-19T06:00:45.981Z,17.60
2018-06-19T06:03:14.321Z,17.60
2018-06-19T06:05:42.548Z,17.60
2018-06-19T06:08:10.676Z,17.70
2018-06-19T06:10:38.982Z,17.90
2018-06-19T06:13:07.150Z,18.30
2018-06-19T06:18:03.342Z,19.00
2018-06-19T06:20:31.530Z,19.20
2018-06-19T06:22:59.705Z,19.50
2018-06-19T06:25:27.896Z,19.90
2018-06-19T06:27:56.116Z,20.20
2018-06-19T06:30:24.295Z,20.40
2018-06-19T06:32:52.483Z,20.50
2018-06-19T06:35:20.816Z,20.70
2018-06-19T06:37:49.000Z,20.80
2018-06-19T06:40:17.190Z,20.90
2018-06-19T06:42:45.404Z,20.90
2018-06-19T06:45:13.809Z,21.00
2018-06-19T06:47:41.967Z,21.10
2018-06-19T06:50:10.320Z,21.20
2018-06-19T06:52:38.426Z,21.30
2018-06-19T06:55:06.593Z,21.40
2018-06-19T06:57:34.784Z,21.40
2018-06-19T07:00:02.989Z,21.60
2018-06-19T07:02:31.318Z,21.60
2018-06-19T07:04:59.695Z,21.70
2018-06-19T07:07:27.992Z,21.70
2018-06-19T07:09:56.169Z,21.80
2018-06-19T07:12:24.343Z,21.90
2018-06-19T07:14:52.670Z,22.10
2018-06-19T07:17:20.855Z,22.30
2018-06-19T07:19:49.027Z,22.60
2018-06-19T07:22:17.223Z,22.90
2018-06-19T07:24:45.422Z,23.00
2018-06-19T07:27:13.953Z,23.30
2018-06-19T07:29:42.120Z,23.30
2018-06-19T07:32:10.283Z,23.30
2018-06-19T07:34:38.438Z,23.30
2018-06-19T07:37:06.620Z,23.40
2018-06-19T07:39:34.794Z,23.40
2018-06-19T07:44:30.879Z,23.50
2018-06-19T07:46:59.057Z,23.60
2018-06-19T07:49:27.264Z,23.90
2018-06-19T07:51:55.425Z,24.20
2018-06-19T07:54:23.595Z,24.50
2018-06-19T07:56:51.906Z,24.80
2018-06-19T07:59:20.080Z,24.90
2018-06-19T08:01:48.247Z,24.70
2018-06-19T08:04:16.406Z,24.60
2018-06-19T08:06:44.572Z,24.90
2018-06-19T08:09:12.913Z,25.40
2018-06-19T08:11:41.093Z,25.80
2018-06-19T08:14:09.580Z,26.10
2018-06-19T08:16:38.283Z,26.30
2018-06-19T08:19:06.463Z,26.70
2018-06-19T08:21:34.637Z,26.90
2018-06-19T08:26:30.800Z,27.40
2018-06-19T08:28:59.122Z,27.70
2018-06-19T08:33:55.059Z,28.30
2018-06-19T08:36:23.289Z,28.80
2018-06-19T08:38:51.777Z,28.80
2018-06-19T08:41:19.944Z,28.20
2018-06-19T08:46:16.088Z,27.10
2018-06-19T08:48:44.272Z,26.50
2018-06-19T08:51:13.037Z,26.00
2018-06-19T08:53:41.495Z,25.50
2018-06-19T08:56:09.678Z,25.20
2018-06-19T08:58:37.861Z,25.10
2018-06-19T09:01:06.156Z,25.60
2018-06-19T09:03:34.299Z,26.70
2018-06-19T09:06:02.480Z,28.00
2018-06-19T09:08:30.864Z,29.00
2018-06-19T09:10:59.032Z,29.60
2018-06-19T09:13:27.248Z,29.70
2018-06-19T09:15:55.381Z,29.30
2018-06-19T09:18:23.544Z,28.90
2018-06-19T09:20:51.723Z,28.50
2018-06-19T09:23:19.890Z,28.10
2018-06-19T09:25:48.092Z,27.90
2018-06-19T09:28:16.270Z,27.70
2018-06-19T09:30:44.437Z,27.50
2018-06-19T09:33:12.670Z,27.30
2018-06-19T09:35:41.168Z,27.20
2018-06-19T09:38:09.339Z,27.30
2018-06-19T09:40:37.536Z,27.40
2018-06-19T09:43:05.763Z,27.50
2018-06-19T09:45:33.924Z,27.70
2018-06-19T09:48:02.098Z,28.00
2018-06-19T09:50:30.275Z,28.70
2018-06-19T09:52:58.464Z,29.50
2018-06-19T09:55:26.664Z,29.90
2018-06-19T09:57:54.833Z,29.80
2018-06-19T10:00:28.341Z,29.60
2018-06-19T10:02:56.526Z,29.80
2018-06-19T10:05:24.701Z,30.10
2018-06-19T10:07:53.033Z,30.30
2018-06-19T10:10:21.209Z,30.40
2018-06-19T10:12:49.384Z,30.30
2018-06-19T10:15:17.699Z,30.70
2018-06-19T10:17:45.871Z,31.40
2018-06-19T10:20:14.142Z,32.00
2018-06-19T10:22:42.387Z,31.90
2018-06-19T10:25:10.609Z,31.80
2018-06-19T10:27:38.811Z,31.30
2018-06-19T10:30:07.016Z,30.50
2018-06-19T10:32:35.400Z,29.60
2018-06-19T10:35:03.588Z,28.90
2018-06-19T10:37:31.749Z,28.40
2018-06-19T10:40:00.644Z,28.20
2018-06-19T10:42:28.806Z,28.00
2018-06-19T10:44:56.999Z,28.10
2018-06-19T10:47:25.193Z,28.40
2018-06-19T10:52:21.458Z,30.10
2018-06-19T10:54:49.666Z,30.70
2018-06-19T10:57:17.833Z,31.20
2018-06-19T10:59:46.448Z,31.50
2018-06-19T11:02:14.641Z,31.90
2018-06-19T11:04:42.803Z,32.20
2018-06-19T11:07:11.197Z,32.10
2018-06-19T11:09:39.362Z,31.70
2018-06-19T11:12:07.537Z,31.10
2018-06-19T11:14:35.719Z,30.70
2018-06-19T11:17:03.875Z,30.60
2018-06-19T11:19:32.048Z,31.00
2018-06-19T11:22:00.227Z,31.50
2018-06-19T11:24:28.400Z,31.80
2018-06-19T11:26:56.572Z,31.90
2018-06-19T11:29:24.728Z,31.90
2018-06-19T11:31:52.904Z,31.60
2018-06-19T11:34:21.080Z,31.00
2018-06-19T11:36:49.269Z,30.70
2018-06-19T11:39:17.413Z,30.90
2018-06-19T11:41:45.593Z,31.30
2018-06-19T11:44:13.771Z,31.00
2018-06-19T11:46:41.933Z,30.60
2018-06-19T11:49:10.246Z,30.60
2018-06-19T11:51:38.324Z,31.10
2018-06-19T11:56:34.426Z,32.20
2018-06-19T11:59:02.688Z,32.40
2018-06-19T12:01:30.867Z,32.70
2018-06-19T12:03:59.146Z,32.50
2018-06-19T12:06:27.383Z,32.20
2018-06-19T12:08:55.630Z,31.90
2018-06-19T12:11:24.875Z,32.00
2018-06-19T12:13:53.235Z,32.50
2018-06-19T12:16:21.407Z,33.20
2018-06-19T12:18:49.593Z,33.70
2018-06-19T12:21:18.286Z,34.20
2018-06-19T12:23:47.228Z,34.30
2018-06-19T12:26:15.373Z,33.70
2018-06-19T12:28:43.564Z,33.10
2018-06-19T12:31:11.749Z,32.90
2018-06-19T12:33:40.170Z,33.10
2018-06-19T12:36:08.796Z,33.40
2018-06-19T12:38:37.379Z,33.30
2018-06-19T12:41:05.662Z,33.40
2018-06-19T12:43:33.901Z,33.20
2018-06-19T12:46:02.133Z,33.30
2018-06-19T12:51:43.482Z,34.00
2018-06-19T12:54:23.229Z,34.00
2018-06-19T12:56:51.411Z,34.40
2018-06-19T12:59:20.350Z,34.40
2018-06-19T13:01:48.672Z,34.10
2018-06-19T13:04:28.355Z,34.30
2018-06-19T13:06:56.539Z,34.60
2018-06-19T13:09:24.698Z,34.80
2018-06-19T13:11:53.000Z,35.00
2018-06-19T13:14:32.545Z,35.50
2018-06-19T13:17:12.207Z,35.90
2018-06-19T13:24:42.071Z,36.00
2018-06-19T13:27:10.262Z,35.30
2018-06-19T13:32:13.647Z,33.20
2018-06-19T13:34:41.847Z,33.30
2018-06-19T13:37:10.148Z,33.90
2018-06-19T13:39:39.018Z,34.70
2018-06-19T13:44:51.512Z,35.70
2018-06-19T13:49:48.119Z,37.00
2018-06-19T13:52:16.281Z,37.50
2018-06-19T13:54:44.475Z,37.70
2018-06-19T13:57:42.077Z,38.00
2018-06-19T14:00:14.301Z,37.70
2018-06-19T14:02:45.465Z,37.70
2018-06-19T14:05:16.177Z,37.90
2018-06-19T14:08:05.635Z,37.70
2018-06-19T14:10:45.180Z,37.90
2018-06-19T14:13:13.346Z,37.50
2018-06-19T14:15:48.515Z,36.70
2018-06-19T14:18:17.720Z,36.40
2018-06-19T14:23:14.097Z,37.10
2018-06-19T14:25:42.258Z,37.30
2018-06-19T14:28:10.559Z,37.50
2018-06-19T14:30:38.741Z,37.80
2018-06-19T14:33:06.914Z,38.10
2018-06-19T14:35:35.084Z,37.90
2018-06-19T14:38:03.298Z,37.70
2018-06-19T14:40:31.477Z,37.80
2018-06-19T14:42:59.732Z,37.90
2018-06-19T14:45:28.243Z,38.10
2018-06-19T14:47:56.484Z,38.30
2018-06-19T14:50:26.113Z,39.00
2018-06-19T14:52:54.317Z,39.50
2018-06-19T14:55:22.497Z,39.70
2018-06-19T14:57:50.703Z,40.30
2018-06-19T15:00:18.936Z,40.20
2018-06-19T15:02:47.809Z,40.10
2018-06-19T15:05:15.985Z,40.30
2018-06-19T15:07:49.681Z,40.40
2018-06-19T15:10:18.440Z,40.20
2018-06-19T15:12:46.560Z,39.40
2018-06-19T15:15:14.720Z,38.40
2018-06-19T15:17:42.910Z,38.60
2018-06-19T15:20:12.409Z,38.60
2018-06-19T15:22:40.631Z,38.30
2018-06-19T15:25:08.818Z,38.30
2018-06-19T15:27:37.014Z,38.40
2018-06-19T15:30:05.204Z,38.00
2018-06-19T15:32:33.392Z,38.10
2018-06-19T15:35:01.596Z,38.20
2018-06-19T15:37:29.828Z,38.60
2018-06-19T15:39:57.997Z,38.60
2018-06-19T15:42:26.153Z,39.00
2018-06-19T15:44:54.397Z,39.10
2018-06-19T15:47:22.593Z,39.30
2018-06-19T15:49:50.780Z,39.60
2018-06-19T15:52:19.043Z,39.40
2018-06-19T15:54:47.237Z,39.10
2018-06-19T15:57:15.433Z,39.10
2018-06-19T15:59:43.892Z,39.20
2018-06-19T16:02:12.064Z,39.20
2018-06-19T16:04:40.238Z,39.40
2018-06-19T16:07:08.421Z,39.30
2018-06-19T16:09:36.620Z,39.00
2018-06-19T16:12:04.831Z,38.90
2018-06-19T16:14:33.027Z,38.80
2018-06-19T16:17:01.257Z,38.80
2018-06-19T16:19:29.441Z,38.90
2018-06-19T16:21:57.623Z,39.10
2018-06-19T16:24:25.804Z,38.70
2018-06-19T16:26:54.320Z,38.50
2018-06-19T16:31:50.440Z,37.50
2018-06-19T16:34:18.595Z,36.90
2018-06-19T16:36:47.453Z,36.30
2018-06-19T16:39:15.632Z,35.50
2018-06-19T16:41:43.881Z,34.90
2018-06-19T16:44:12.125Z,34.10
2018-06-19T16:46:40.316Z,33.50
2018-06-19T16:49:08.479Z,33.50
2018-06-19T16:51:36.647Z,33.70
2018-06-19T16:54:04.891Z,33.90
2018-06-19T16:56:33.124Z,34.10
2018-06-19T16:59:01.357Z,34.70
2018-06-19T17:01:29.571Z,35.00
2018-06-19T17:03:57.704Z,35.30
2018-06-19T17:06:25.923Z,35.50
2018-06-19T17:08:54.575Z,35.50
2018-06-19T17:11:22.845Z,35.00
2018-06-19T17:13:51.048Z,34.20
2018-06-19T17:16:19.194Z,33.10
2018-06-19T17:18:47.585Z,32.00
2018-06-19T17:21:15.809Z,31.00
2018-06-19T17:26:11.981Z,28.80
2018-06-19T17:28:40.160Z,28.10
2018-06-19T17:31:08.423Z,27.60
2018-06-19T17:33:36.753Z,27.20
2018-06-19T17:36:04.916Z,26.80
2018-06-19T17:38:33.099Z,26.50
2018-06-19T17:41:01.331Z,26.30
2018-06-19T17:43:29.603Z,26.00
2018-06-19T17:45:57.776Z,25.80
2018-06-19T17:48:25.946Z,25.70
2018-06-19T17:50:54.866Z,25.40
2018-06-19T17:53:23.059Z,25.30
2018-06-19T17:55:51.217Z,25.20
2018-06-19T17:58:19.402Z,25.10
2018-06-19T18:00:47.584Z,25.00
2018-06-19T18:03:15.747Z,24.90
2018-06-19T18:05:43.920Z,24.70
2018-06-19T18:08:12.094Z,24.60
2018-06-19T18:10:40.317Z,24.50
2018-06-19T18:13:08.420Z,24.50
2018-06-19T18:15:36.687Z,24.40
2018-06-19T18:18:04.809Z,24.30
2018-06-19T18:20:32.958Z,24.20
2018-06-19T18:23:01.141Z,24.10
2018-06-19T18:25:29.308Z,24.10
2018-06-19T18:27:57.488Z,24.00
2018-06-19T18:30:26.021Z,24.00
2018-06-19T18:32:54.200Z,23.90
2018-06-19T18:35:22.377Z,23.80
2018-06-19T18:37:50.539Z,23.70
2018-06-19T18:40:18.713Z,23.60
2018-06-19T18:42:46.851Z,23.60
2018-06-19T18:45:15.050Z,23.50
2018-06-19T18:47:43.217Z,23.40
2018-06-19T18:50:11.402Z,23.30
2018-06-19T18:52:39.629Z,23.20
2018-06-19T18:55:07.832Z,23.10
2018-06-19T18:57:36.005Z,23.00
2018-06-19T19:00:04.343Z,22.90
2018-06-19T19:02:32.545Z,22.90
2018-06-19T19:05:00.778Z,22.80
2018-06-19T19:07:29.006Z,22.70
2018-06-19T19:10:02.573Z,22.60
2018-06-19T19:12:30.855Z,22.60
2018-06-19T19:15:04.505Z,22.50
2018-06-19T19:17:37.964Z,22.30
2018-06-19T19:20:06.221Z,22.20
2018-06-19T19:22:34.405Z,22.10
2018-06-19T19:25:02.793Z,22.00
2018-06-19T19:27:36.522Z,21.80
2018-06-19T19:30:05.096Z,21.70
2018-06-19T19:32:33.347Z,21.70
2018-06-19T19:35:01.567Z,21.60
2018-06-19T19:37:35.380Z,21.50
2018-06-19T19:40:03.785Z,21.50
2018-06-19T19:42:32.187Z,21.40
2018-06-19T19:45:00.415Z,21.30
2018-06-19T19:47:34.106Z,21.20
2018-06-19T19:50:02.331Z,21.20
2018-06-19T19:52:30.514Z,21.10
2018-06-19T19:54:58.853Z,20.90
2018-06-19T19:57:32.254Z,20.80
2018-06-19T20:00:00.425Z,20.70
2018-06-19T20:02:28.607Z,20.60
2018-06-19T20:04:57.007Z,20.60
2018-06-19T20:07:25.222Z,20.50
2018-06-19T20:09:53.401Z,20.40
2018-06-19T20:12:21.616Z,20.40
2018-06-19T20:14:49.800Z,20.30
2018-06-19T20:17:17.970Z,20.30
2018-06-19T20:19:46.255Z,20.20
2018-06-19T20:22:14.585Z,20.10
2018-06-19T20:24:42.749Z,20.00
2018-06-19T20:27:10.941Z,20.00
2018-06-19T20:29:39.273Z,19.90
2018-06-19T20:32:07.654Z,19.80
2018-06-19T20:34:35.860Z,19.80
2018-06-19T20:37:04.047Z,19.70
2018-06-19T20:39:32.832Z,19.60
2018-06-19T20:42:00.994Z,19.60
2018-06-19T20:44:29.571Z,19.50
2018-06-19T20:46:57.759Z,19.40
2018-06-19T20:49:26.076Z,19.40
2018-06-19T20:51:54.289Z,19.30
2018-06-19T20:54:22.532Z,19.30
2018-06-19T20:56:50.748Z,19.20
2018-06-19T20:59:18.942Z,19.20
2018-06-19T21:01:47.144Z,19.20
2018-06-19T21:06:49.961Z,19.00
2018-06-19T21:09:18.324Z,18.90
2018-06-19T21:11:46.501Z,18.80
2018-06-19T21:14:14.720Z,18.70
2018-06-19T21:16:42.987Z,18.70
2018-06-19T21:19:11.214Z,18.60
2018-06-19T21:21:39.367Z,18.60
2018-06-19T21:24:07.857Z,18.50
2018-06-19T21:29:04.006Z,18.40
2018-06-19T21:31:32.168Z,18.40
2018-06-19T21:34:00.329Z,18.30
2018-06-19T21:36:28.547Z,18.30
2018-06-19T21:38:56.754Z,18.20
2018-06-19T21:41:25.375Z,18.10
2018-06-19T21:43:53.749Z,18.10
2018-06-19T21:46:21.950Z,18.10
2018-06-19T21:48:50.095Z,18.00
2018-06-19T21:51:18.286Z,17.90
2018-06-19T21:53:46.467Z,17.90
2018-06-19T21:56:14.776Z,17.80
2018-06-19T21:58:42.987Z,17.70
2018-06-19T22:01:11.156Z,17.60
2018-06-19T22:03:39.396Z,17.50
2018-06-19T22:06:07.636Z,17.40
2018-06-19T22:08:41.176Z,17.40
2018-06-19T22:11:09.352Z,17.30
2018-06-19T22:13:37.670Z,17.20
2018-06-19T22:16:06.185Z,17.10
2018-06-19T22:18:34.397Z,17.10
2018-06-19T22:21:02.620Z,17.00
2018-06-19T22:23:30.797Z,16.90
2018-06-19T22:25:58.985Z,16.90
2018-06-19T22:28:27.204Z,16.80
2018-06-19T22:30:55.411Z,16.70
2018-06-19T22:33:23.612Z,16.70
2018-06-19T22:35:51.793Z,16.60
2018-06-19T22:38:20.111Z,16.60
2018-06-19T22:40:48.559Z,16.60
2018-06-19T22:43:16.773Z,16.50
2018-06-19T22:45:44.946Z,16.50
2018-06-19T22:48:13.536Z,16.50
2018-06-19T22:50:42.708Z,16.40
2018-06-19T22:53:10.888Z,16.40
2018-06-19T22:55:39.129Z,16.40
2018-06-19T22:58:07.294Z,16.40
2018-06-19T23:03:05.269Z,16.30
2018-06-19T23:05:34.705Z,16.30
2018-06-19T23:08:03.348Z,16.20
2018-06-19T23:10:31.604Z,16.20
2018-06-19T23:13:00.911Z,16.10
2018-06-19T23:15:29.080Z,16.10
2018-06-19T23:17:57.252Z,16.00
2018-06-19T23:20:25.414Z,16.00
2018-06-19T23:22:53.592Z,15.90
2018-06-19T23:25:21.822Z,15.90
2018-06-19T23:27:50.036Z,15.90
2018-06-19T23:30:18.706Z,15.80
2018-06-19T23:32:47.036Z,15.80
2018-06-19T23:35:15.189Z,15.80
2018-06-19T23:37:43.661Z,15.70
2018-06-19T23:40:11.992Z,15.70
2018-06-19T23:42:40.190Z,15.70
2018-06-19T23:45:08.344Z,15.60
2018-06-19T23:47:36.512Z,15.60
2018-06-19T23:50:04.900Z,15.50
2018-06-19T23:52:33.060Z,15.50
2018-06-19T23:55:01.215Z,15.50
2018-06-19T23:57:29.412Z,15.40
2018-06-19T23:59:57.584Z,15.30
